sensor_id;sensor_type;location;lat;lon;timestamp;pressure;altitude;pressure_sealevel;temperature;humidity
81999;BME280;71598;46.516;-122.928;2023-09-19T00:02:16;100364.92;;;24.88;16.72
81999;BME280;71598;46.516;-122.928;2023-09-19T00:04:41;100366.66;;;24.90;16.71
81999;BME280;71598;46.516;-122.928;2023-09-19T00:07:07;100365.16;;;24.95;16.70
81999;BME280;71598;46.516;-122.928;2023-09-19T00:09:32;100363.42;;;25.03;16.66
81999;BME280;71598;46.516;-122.928;2023-09-19T00:11:57;100365.54;;;24.99;16.64
81999;BME280;71598;46.516;-122.928;2023-09-19T00:14:25;100361.40;;;25.15;16.56
81999;BME280;71598;46.516;-122.928;2023-09-19T00:16:48;100358.23;;;25.19;16.59
81999;BME280;71598;46.516;-122.928;2023-09-19T00:19:13;100359.82;;;25.06;16.65
81999;BME280;71598;46.516;-122.928;2023-09-19T00:21:38;100357.68;;;25.08;16.60
81999;BME280;71598;46.516;-122.928;2023-09-19T00:24:05;100354.93;;;25.18;16.60
81999;BME280;71598;46.516;-122.928;2023-09-19T00:26:29;100356.34;;;25.08;16.63
81999;BME280;71598;46.516;-122.928;2023-09-19T00:28:55;100350.03;;;25.19;16.54
81999;BME280;71598;46.516;-122.928;2023-09-19T00:31:21;100347.77;;;25.22;16.57
81999;BME280;71598;46.516;-122.928;2023-09-19T00:33:46;100351.01;;;25.24;16.55
81999;BME280;71598;46.516;-122.928;2023-09-19T00:36:11;100355.69;;;25.22;16.57
81999;BME280;71598;46.516;-122.928;2023-09-19T00:38:36;100351.08;;;25.12;16.56
81999;BME280;71598;46.516;-122.928;2023-09-19T00:41:01;100353.12;;;25.22;16.56
81999;BME280;71598;46.516;-122.928;2023-09-19T00:43:27;100348.73;;;25.22;16.55
81999;BME280;71598;46.516;-122.928;2023-09-19T00:45:54;100353.22;;;25.17;16.55
81999;BME280;71598;46.516;-122.928;2023-09-19T00:48:18;100354.91;;;24.97;16.57
81999;BME280;71598;46.516;-122.928;2023-09-19T00:50:43;100352.87;;;25.14;16.60
81999;BME280;71598;46.516;-122.928;2023-09-19T00:53:09;100347.65;;;25.16;16.60
81999;BME280;71598;46.516;-122.928;2023-09-19T00:55:34;100347.85;;;25.06;16.58
81999;BME280;71598;46.516;-122.928;2023-09-19T00:58:00;100350.88;;;25.14;16.60
81999;BME280;71598;46.516;-122.928;2023-09-19T01:00:23;100346.74;;;25.06;16.58
81999;BME280;71598;46.516;-122.928;2023-09-19T01:02:49;100350.21;;;25.10;16.60
81999;BME280;71598;46.516;-122.928;2023-09-19T01:05:14;100347.65;;;24.81;16.62
81999;BME280;71598;46.516;-122.928;2023-09-19T01:07:39;100348.99;;;24.92;16.59
81999;BME280;71598;46.516;-122.928;2023-09-19T01:10:06;100354.79;;;25.00;16.58
81999;BME280;71598;46.516;-122.928;2023-09-19T01:12:36;100356.40;;;24.99;16.55
81999;BME280;71598;46.516;-122.928;2023-09-19T01:14:59;100354.21;;;25.06;16.60
81999;BME280;71598;46.516;-122.928;2023-09-19T01:17:27;100352.75;;;25.09;16.60
81999;BME280;71598;46.516;-122.928;2023-09-19T01:20:11;100346.81;;;25.02;16.59
81999;BME280;71598;46.516;-122.928;2023-09-19T01:22:16;100345.47;;;24.98;16.54
81999;BME280;71598;46.516;-122.928;2023-09-19T01:25:04;100344.32;;;25.08;16.52
81999;BME280;71598;46.516;-122.928;2023-09-19T01:27:25;100347.45;;;25.07;16.52
81999;BME280;71598;46.516;-122.928;2023-09-19T01:29:36;100350.28;;;25.31;16.50
81999;BME280;71598;46.516;-122.928;2023-09-19T01:31:54;100351.25;;;25.16;16.52
81999;BME280;71598;46.516;-122.928;2023-09-19T01:34:19;100359.83;;;25.04;16.54
81999;BME280;71598;46.516;-122.928;2023-09-19T01:36:45;100364.14;;;24.81;16.61
81999;BME280;71598;46.516;-122.928;2023-09-19T01:39:11;100364.77;;;24.81;16.60
81999;BME280;71598;46.516;-122.928;2023-09-19T01:41:51;100366.45;;;25.01;16.62
81999;BME280;71598;46.516;-122.928;2023-09-19T01:44:05;100366.08;;;24.97;16.59
81999;BME280;71598;46.516;-122.928;2023-09-19T01:46:33;100363.19;;;25.17;16.50
81999;BME280;71598;46.516;-122.928;2023-09-19T01:49:01;100366.54;;;25.28;16.53
81999;BME280;71598;46.516;-122.928;2023-09-19T01:51:23;100371.43;;;24.96;16.61
81999;BME280;71598;46.516;-122.928;2023-09-19T01:53:49;100375.02;;;24.65;16.66
81999;BME280;71598;46.516;-122.928;2023-09-19T01:56:16;100372.95;;;24.84;16.66
81999;BME280;71598;46.516;-122.928;2023-09-19T01:58:37;100371.39;;;24.71;16.67
81999;BME280;71598;46.516;-122.928;2023-09-19T02:01:01;100372.87;;;24.87;16.62
81999;BME280;71598;46.516;-122.928;2023-09-19T02:03:25;100374.43;;;25.04;16.58
81999;BME280;71598;46.516;-122.928;2023-09-19T02:05:50;100373.16;;;25.27;16.56
81999;BME280;71598;46.516;-122.928;2023-09-19T02:08:17;100373.15;;;25.34;16.54
81999;BME280;71598;46.516;-122.928;2023-09-19T02:10:41;100374.07;;;25.06;16.50
81999;BME280;71598;46.516;-122.928;2023-09-19T02:13:06;100377.02;;;25.02;16.49
81999;BME280;71598;46.516;-122.928;2023-09-19T02:15:32;100378.91;;;25.04;16.51
81999;BME280;71598;46.516;-122.928;2023-09-19T02:17:57;100384.05;;;24.94;16.52
81999;BME280;71598;46.516;-122.928;2023-09-19T02:20:22;100381.12;;;24.82;16.63
81999;BME280;71598;46.516;-122.928;2023-09-19T02:22:47;100385.15;;;24.79;16.62
81999;BME280;71598;46.516;-122.928;2023-09-19T02:25:13;100390.62;;;24.98;16.69
81999;BME280;71598;46.516;-122.928;2023-09-19T02:27:38;100394.26;;;24.45;16.77
81999;BME280;71598;46.516;-122.928;2023-09-19T02:30:04;100394.91;;;24.67;16.79
81999;BME280;71598;46.516;-122.928;2023-09-19T02:32:29;100394.13;;;24.36;16.86
81999;BME280;71598;46.516;-122.928;2023-09-19T02:35:08;100400.29;;;24.93;16.92
81999;BME280;71598;46.516;-122.928;2023-09-19T02:37:19;100399.33;;;24.62;17.00
81999;BME280;71598;46.516;-122.928;2023-09-19T02:39:45;100397.01;;;24.77;16.96
81999;BME280;71598;46.516;-122.928;2023-09-19T02:42:10;100394.99;;;24.98;16.94
81999;BME280;71598;46.516;-122.928;2023-09-19T02:44:36;100398.77;;;24.92;16.92
81999;BME280;71598;46.516;-122.928;2023-09-19T02:47:01;100403.91;;;24.85;16.86
81999;BME280;71598;46.516;-122.928;2023-09-19T02:49:26;100402.61;;;24.89;16.78
81999;BME280;71598;46.516;-122.928;2023-09-19T02:51:51;100403.15;;;24.72;16.84
81999;BME280;71598;46.516;-122.928;2023-09-19T02:54:17;100409.31;;;25.17;16.70
81999;BME280;71598;46.516;-122.928;2023-09-19T02:56:43;100408.80;;;25.43;16.69
81999;BME280;71598;46.516;-122.928;2023-09-19T02:59:08;100413.53;;;25.10;16.67
81999;BME280;71598;46.516;-122.928;2023-09-19T03:01:33;100414.65;;;25.18;16.65
81999;BME280;71598;46.516;-122.928;2023-09-19T03:03:59;100413.08;;;24.86;16.61
81999;BME280;71598;46.516;-122.928;2023-09-19T03:06:24;100410.85;;;25.09;16.63
81999;BME280;71598;46.516;-122.928;2023-09-19T03:08:49;100410.74;;;25.00;16.61
81999;BME280;71598;46.516;-122.928;2023-09-19T03:11:16;100413.86;;;25.47;16.62
81999;BME280;71598;46.516;-122.928;2023-09-19T03:13:41;100415.72;;;25.18;16.57
81999;BME280;71598;46.516;-122.928;2023-09-19T03:16:06;100416.86;;;25.09;16.55
81999;BME280;71598;46.516;-122.928;2023-09-19T03:18:31;100415.15;;;24.89;16.56
81999;BME280;71598;46.516;-122.928;2023-09-19T03:20:56;100414.24;;;24.93;16.68
81999;BME280;71598;46.516;-122.928;2023-09-19T03:23:21;100414.86;;;24.63;16.76
81999;BME280;71598;46.516;-122.928;2023-09-19T03:25:47;100415.14;;;24.23;16.92
81999;BME280;71598;46.516;-122.928;2023-09-19T03:28:12;100422.90;;;24.32;17.11
81999;BME280;71598;46.516;-122.928;2023-09-19T03:30:37;100422.55;;;24.15;17.39
81999;BME280;71598;46.516;-122.928;2023-09-19T03:33:03;100427.43;;;23.80;17.45
81999;BME280;71598;46.516;-122.928;2023-09-19T03:35:29;100428.49;;;23.28;17.62
81999;BME280;71598;46.516;-122.928;2023-09-19T03:37:54;100433.04;;;23.47;17.74
81999;BME280;71598;46.516;-122.928;2023-09-19T03:40:18;100438.25;;;23.83;17.72
81999;BME280;71598;46.516;-122.928;2023-09-19T03:42:46;100439.02;;;23.72;17.74
81999;BME280;71598;46.516;-122.928;2023-09-19T03:45:10;100441.09;;;23.91;17.67
81999;BME280;71598;46.516;-122.928;2023-09-19T03:47:36;100443.37;;;23.99;17.62
81999;BME280;71598;46.516;-122.928;2023-09-19T03:50:01;100448.60;;;24.20;17.56
81999;BME280;71598;46.516;-122.928;2023-09-19T03:52:26;100449.12;;;24.41;17.46
81999;BME280;71598;46.516;-122.928;2023-09-19T03:54:51;100450.29;;;24.64;17.38
81999;BME280;71598;46.516;-122.928;2023-09-19T03:57:18;100453.34;;;24.71;17.28
81999;BME280;71598;46.516;-122.928;2023-09-19T03:59:42;100451.44;;;24.52;17.18
81999;BME280;71598;46.516;-122.928;2023-09-19T04:02:11;100453.00;;;24.98;17.22
81999;BME280;71598;46.516;-122.928;2023-09-19T04:04:33;100461.40;;;24.82;17.05
81999;BME280;71598;46.516;-122.928;2023-09-19T04:07:01;100464.27;;;24.85;16.98
81999;BME280;71598;46.516;-122.928;2023-09-19T04:09:24;100460.38;;;24.71;16.91
81999;BME280;71598;46.516;-122.928;2023-09-19T04:11:49;100465.08;;;24.70;16.88
81999;BME280;71598;46.516;-122.928;2023-09-19T04:14:14;100468.37;;;23.40;16.79
81999;BME280;71598;46.516;-122.928;2023-09-19T04:16:39;100468.22;;;25.13;16.58
81999;BME280;71598;46.516;-122.928;2023-09-19T04:19:04;100466.29;;;25.08;16.60
81999;BME280;71598;46.516;-122.928;2023-09-19T04:21:30;100466.03;;;25.08;16.59
81999;BME280;71598;46.516;-122.928;2023-09-19T04:23:56;100465.53;;;25.33;16.55
81999;BME280;71598;46.516;-122.928;2023-09-19T04:26:22;100464.69;;;25.12;16.55
81999;BME280;71598;46.516;-122.928;2023-09-19T04:28:48;100462.73;;;25.02;16.55
81999;BME280;71598;46.516;-122.928;2023-09-19T04:31:12;100463.61;;;24.93;16.59
81999;BME280;71598;46.516;-122.928;2023-09-19T04:33:38;100462.10;;;24.85;16.65
81999;BME280;71598;46.516;-122.928;2023-09-19T04:36:03;100466.48;;;24.80;16.68
81999;BME280;71598;46.516;-122.928;2023-09-19T04:38:29;100464.15;;;25.35;16.70
81999;BME280;71598;46.516;-122.928;2023-09-19T04:40:58;100463.63;;;24.79;16.64
81999;BME280;71598;46.516;-122.928;2023-09-19T04:43:21;100460.34;;;25.00;16.64
81999;BME280;71598;46.516;-122.928;2023-09-19T04:45:46;100462.30;;;24.82;16.61
81999;BME280;71598;46.516;-122.928;2023-09-19T04:48:11;100462.53;;;24.90;16.60
81999;BME280;71598;46.516;-122.928;2023-09-19T04:50:37;100463.31;;;25.23;16.60
81999;BME280;71598;46.516;-122.928;2023-09-19T04:53:03;100464.19;;;25.09;16.58
81999;BME280;71598;46.516;-122.928;2023-09-19T04:55:28;100461.15;;;25.06;16.58
81999;BME280;71598;46.516;-122.928;2023-09-19T04:57:55;100456.16;;;25.05;16.55
81999;BME280;71598;46.516;-122.928;2023-09-19T05:00:20;100453.58;;;25.06;16.50
81999;BME280;71598;46.516;-122.928;2023-09-19T05:02:46;100450.06;;;25.24;16.40
81999;BME280;71598;46.516;-122.928;2023-09-19T05:05:11;100451.01;;;25.42;16.42
81999;BME280;71598;46.516;-122.928;2023-09-19T05:07:36;100448.23;;;25.29;16.41
81999;BME280;71598;46.516;-122.928;2023-09-19T05:10:02;100445.52;;;25.17;16.40
81999;BME280;71598;46.516;-122.928;2023-09-19T05:12:27;100448.75;;;25.24;16.41
81999;BME280;71598;46.516;-122.928;2023-09-19T05:14:52;100455.57;;;25.16;16.39
81999;BME280;71598;46.516;-122.928;2023-09-19T05:17:21;100454.23;;;25.38;16.36
81999;BME280;71598;46.516;-122.928;2023-09-19T05:19:44;100451.35;;;25.33;16.34
81999;BME280;71598;46.516;-122.928;2023-09-19T05:22:09;100454.53;;;25.36;16.31
81999;BME280;71598;46.516;-122.928;2023-09-19T05:24:34;100454.74;;;25.33;16.30
81999;BME280;71598;46.516;-122.928;2023-09-19T05:27:00;100454.35;;;25.21;16.30
81999;BME280;71598;46.516;-122.928;2023-09-19T05:29:26;100453.30;;;25.37;16.26
81999;BME280;71598;46.516;-122.928;2023-09-19T05:31:51;100450.28;;;25.07;16.30
81999;BME280;71598;46.516;-122.928;2023-09-19T05:34:17;100449.11;;;25.19;16.29
81999;BME280;71598;46.516;-122.928;2023-09-19T05:36:43;100449.85;;;25.11;16.28
81999;BME280;71598;46.516;-122.928;2023-09-19T05:39:08;100453.41;;;25.32;16.26
81999;BME280;71598;46.516;-122.928;2023-09-19T05:41:33;100451.61;;;25.24;16.25
81999;BME280;71598;46.516;-122.928;2023-09-19T05:43:58;100449.22;;;25.13;16.23
81999;BME280;71598;46.516;-122.928;2023-09-19T05:46:24;100449.09;;;25.24;16.26
81999;BME280;71598;46.516;-122.928;2023-09-19T05:48:49;100450.41;;;25.18;16.20
81999;BME280;71598;46.516;-122.928;2023-09-19T05:51:14;100451.68;;;25.20;16.19
81999;BME280;71598;46.516;-122.928;2023-09-19T05:53:40;100451.66;;;25.31;16.18
81999;BME280;71598;46.516;-122.928;2023-09-19T05:56:05;100452.16;;;25.30;16.12
81999;BME280;71598;46.516;-122.928;2023-09-19T05:58:32;100454.84;;;25.00;16.16
81999;BME280;71598;46.516;-122.928;2023-09-19T06:00:55;100454.43;;;25.29;16.14
81999;BME280;71598;46.516;-122.928;2023-09-19T06:03:21;100450.06;;;25.10;16.17
81999;BME280;71598;46.516;-122.928;2023-09-19T06:05:46;100450.80;;;25.24;16.16
81999;BME280;71598;46.516;-122.928;2023-09-19T06:08:12;100447.85;;;24.66;16.26
81999;BME280;71598;46.516;-122.928;2023-09-19T06:10:38;100446.82;;;24.24;16.39
81999;BME280;71598;46.516;-122.928;2023-09-19T06:13:04;100442.49;;;24.22;16.55
81999;BME280;71598;46.516;-122.928;2023-09-19T06:15:29;100439.21;;;24.10;16.70
81999;BME280;71598;46.516;-122.928;2023-09-19T06:17:55;100439.56;;;23.73;16.83
81999;BME280;71598;46.516;-122.928;2023-09-19T06:20:20;100441.59;;;23.60;17.02
81999;BME280;71598;46.516;-122.928;2023-09-19T06:22:47;100442.08;;;23.27;17.19
81999;BME280;71598;46.516;-122.928;2023-09-19T06:25:11;100441.26;;;23.52;17.36
81999;BME280;71598;46.516;-122.928;2023-09-19T06:27:36;100441.15;;;23.02;17.50
81999;BME280;71598;46.516;-122.928;2023-09-19T06:30:01;100438.23;;;23.28;17.61
81999;BME280;71598;46.516;-122.928;2023-09-19T06:32:28;100438.91;;;22.87;17.73
81999;BME280;71598;46.516;-122.928;2023-09-19T06:34:53;100435.74;;;22.73;17.93
81999;BME280;71598;46.516;-122.928;2023-09-19T06:37:17;100436.58;;;22.69;17.93
81999;BME280;71598;46.516;-122.928;2023-09-19T06:39:43;100436.14;;;22.73;17.97
81999;BME280;71598;46.516;-122.928;2023-09-19T06:42:09;100435.49;;;22.78;18.00
81999;BME280;71598;46.516;-122.928;2023-09-19T06:44:33;100434.71;;;22.51;18.03
81999;BME280;71598;46.516;-122.928;2023-09-19T06:46:59;100435.52;;;22.63;18.05
81999;BME280;71598;46.516;-122.928;2023-09-19T06:49:24;100439.85;;;22.43;18.10
81999;BME280;71598;46.516;-122.928;2023-09-19T06:51:49;100443.97;;;22.82;18.14
81999;BME280;71598;46.516;-122.928;2023-09-19T06:54:15;100447.70;;;22.48;18.20
81999;BME280;71598;46.516;-122.928;2023-09-19T06:56:40;100446.52;;;22.44;18.25
81999;BME280;71598;46.516;-122.928;2023-09-19T06:59:07;100443.84;;;22.33;18.30
81999;BME280;71598;46.516;-122.928;2023-09-19T07:01:31;100445.45;;;22.15;18.32
81999;BME280;71598;46.516;-122.928;2023-09-19T07:03:57;100442.02;;;22.36;18.35
81999;BME280;71598;46.516;-122.928;2023-09-19T07:06:22;100438.84;;;22.30;18.42
81999;BME280;71598;46.516;-122.928;2023-09-19T07:08:47;100437.54;;;22.38;18.47
81999;BME280;71598;46.516;-122.928;2023-09-19T07:11:13;100437.33;;;22.14;18.53
81999;BME280;71598;46.516;-122.928;2023-09-19T07:13:38;100424.79;;;21.90;18.58
81999;BME280;71598;46.516;-122.928;2023-09-19T07:16:04;100418.06;;;22.04;18.62
81999;BME280;71598;46.516;-122.928;2023-09-19T07:18:29;100422.06;;;21.95;18.66
81999;BME280;71598;46.516;-122.928;2023-09-19T07:20:58;100424.57;;;21.54;18.69
81999;BME280;71598;46.516;-122.928;2023-09-19T07:23:20;100425.17;;;21.88;18.73
81999;BME280;71598;46.516;-122.928;2023-09-19T07:25:45;100427.11;;;21.79;18.76
81999;BME280;71598;46.516;-122.928;2023-09-19T07:28:11;100431.69;;;21.71;18.83
81999;BME280;71598;46.516;-122.928;2023-09-19T07:30:37;100435.54;;;21.50;18.83
81999;BME280;71598;46.516;-122.928;2023-09-19T07:33:02;100435.87;;;22.10;18.85
81999;BME280;71598;46.516;-122.928;2023-09-19T07:35:28;100436.74;;;21.49;18.87
81999;BME280;71598;46.516;-122.928;2023-09-19T07:37:53;100434.90;;;21.78;18.91
81999;BME280;71598;46.516;-122.928;2023-09-19T07:40:19;100436.83;;;21.21;18.94
81999;BME280;71598;46.516;-122.928;2023-09-19T07:42:43;100440.16;;;21.55;18.94
81999;BME280;71598;46.516;-122.928;2023-09-19T07:45:10;100441.52;;;21.27;18.96
81999;BME280;71598;46.516;-122.928;2023-09-19T07:47:34;100445.02;;;21.19;18.99
81999;BME280;71598;46.516;-122.928;2023-09-19T07:50:02;100447.80;;;21.35;19.01
81999;BME280;71598;46.516;-122.928;2023-09-19T07:52:25;100444.57;;;21.17;19.04
81999;BME280;71598;46.516;-122.928;2023-09-19T07:54:51;100449.42;;;21.22;19.07
81999;BME280;71598;46.516;-122.928;2023-09-19T07:57:17;100453.82;;;21.15;19.11
81999;BME280;71598;46.516;-122.928;2023-09-19T07:59:45;100453.59;;;21.43;19.13
81999;BME280;71598;46.516;-122.928;2023-09-19T08:02:08;100451.92;;;21.28;19.15
81999;BME280;71598;46.516;-122.928;2023-09-19T08:04:33;100451.40;;;21.24;19.17
81999;BME280;71598;46.516;-122.928;2023-09-19T08:06:58;100452.68;;;21.16;19.18
81999;BME280;71598;46.516;-122.928;2023-09-19T08:09:24;100458.65;;;21.25;19.20
81999;BME280;71598;46.516;-122.928;2023-09-19T08:11:50;100458.93;;;21.11;19.22
81999;BME280;71598;46.516;-122.928;2023-09-19T08:14:15;100463.19;;;21.45;19.24
81999;BME280;71598;46.516;-122.928;2023-09-19T08:16:41;100465.66;;;21.21;19.25
81999;BME280;71598;46.516;-122.928;2023-09-19T08:19:07;100469.68;;;21.27;19.27
81999;BME280;71598;46.516;-122.928;2023-09-19T08:21:32;100478.12;;;21.23;19.28
81999;BME280;71598;46.516;-122.928;2023-09-19T08:23:58;100484.56;;;21.20;19.24
81999;BME280;71598;46.516;-122.928;2023-09-19T08:26:23;100484.52;;;21.08;19.29
81999;BME280;71598;46.516;-122.928;2023-09-19T08:28:48;100488.44;;;21.03;19.30
81999;BME280;71598;46.516;-122.928;2023-09-19T08:31:14;100491.43;;;20.88;19.30
81999;BME280;71598;46.516;-122.928;2023-09-19T08:33:40;100492.38;;;21.17;19.30
81999;BME280;71598;46.516;-122.928;2023-09-19T08:36:06;100494.87;;;21.13;19.30
81999;BME280;71598;46.516;-122.928;2023-09-19T08:38:30;100493.90;;;21.10;19.30
81999;BME280;71598;46.516;-122.928;2023-09-19T08:40:57;100495.23;;;21.04;19.32
81999;BME280;71598;46.516;-122.928;2023-09-19T08:43:22;100493.07;;;21.00;19.33
81999;BME280;71598;46.516;-122.928;2023-09-19T08:45:46;100493.03;;;20.86;19.34
81999;BME280;71598;46.516;-122.928;2023-09-19T08:48:22;100494.36;;;20.75;19.33
81999;BME280;71598;46.516;-122.928;2023-09-19T08:50:43;100497.24;;;20.92;19.35
81999;BME280;71598;46.516;-122.928;2023-09-19T08:53:10;100496.37;;;20.88;19.37
81999;BME280;71598;46.516;-122.928;2023-09-19T08:55:31;100496.46;;;20.65;19.38
81999;BME280;71598;46.516;-122.928;2023-09-19T08:57:59;100496.74;;;20.83;19.41
81999;BME280;71598;46.516;-122.928;2023-09-19T09:00:20;100500.05;;;20.90;19.42
81999;BME280;71598;46.516;-122.928;2023-09-19T09:02:46;100503.91;;;20.87;19.43
81999;BME280;71598;46.516;-122.928;2023-09-19T09:05:11;100502.44;;;20.87;19.43
81999;BME280;71598;46.516;-122.928;2023-09-19T09:07:36;100500.53;;;20.71;19.46
81999;BME280;71598;46.516;-122.928;2023-09-19T09:10:03;100503.21;;;20.79;19.43
81999;BME280;71598;46.516;-122.928;2023-09-19T09:12:27;100503.94;;;20.72;19.42
81999;BME280;71598;46.516;-122.928;2023-09-19T09:14:52;100506.22;;;20.65;19.39
81999;BME280;71598;46.516;-122.928;2023-09-19T09:17:18;100510.45;;;20.85;19.36
81999;BME280;71598;46.516;-122.928;2023-09-19T09:19:43;100514.49;;;20.68;19.40
81999;BME280;71598;46.516;-122.928;2023-09-19T09:22:10;100509.86;;;20.60;19.43
81999;BME280;71598;46.516;-122.928;2023-09-19T09:24:34;100508.74;;;20.75;19.44
81999;BME280;71598;46.516;-122.928;2023-09-19T09:26:59;100511.34;;;20.47;19.31
81999;BME280;71598;46.516;-122.928;2023-09-19T09:29:41;100512.61;;;20.44;19.46
81999;BME280;71598;46.516;-122.928;2023-09-19T09:31:50;100512.32;;;20.40;19.47
81999;BME280;71598;46.516;-122.928;2023-09-19T09:34:16;100512.31;;;20.48;19.46
81999;BME280;71598;46.516;-122.928;2023-09-19T09:36:41;100514.98;;;20.45;19.47
81999;BME280;71598;46.516;-122.928;2023-09-19T09:39:06;100517.08;;;20.49;19.49
81999;BME280;71598;46.516;-122.928;2023-09-19T09:41:37;100518.51;;;20.60;19.50
81999;BME280;71598;46.516;-122.928;2023-09-19T09:43:57;100515.93;;;20.25;19.50
81999;BME280;71598;46.516;-122.928;2023-09-19T09:46:23;100518.50;;;20.22;19.49
81999;BME280;71598;46.516;-122.928;2023-09-19T09:48:55;100517.09;;;20.19;19.50
81999;BME280;71598;46.516;-122.928;2023-09-19T09:51:15;100514.66;;;20.36;19.51
81999;BME280;71598;46.516;-122.928;2023-09-19T09:53:39;100515.62;;;20.23;19.51
81999;BME280;71598;46.516;-122.928;2023-09-19T09:56:06;100518.19;;;20.55;19.53
81999;BME280;71598;46.516;-122.928;2023-09-19T09:58:30;100514.03;;;20.41;19.52
81999;BME280;71598;46.516;-122.928;2023-09-19T10:00:57;100516.81;;;20.20;19.51
81999;BME280;71598;46.516;-122.928;2023-09-19T10:03:21;100518.51;;;20.35;19.51
81999;BME280;71598;46.516;-122.928;2023-09-19T10:05:54;100515.77;;;20.12;19.53
81999;BME280;71598;46.516;-122.928;2023-09-19T10:08:13;100512.36;;;20.32;19.54
81999;BME280;71598;46.516;-122.928;2023-09-19T10:10:39;100513.59;;;19.99;19.52
81999;BME280;71598;46.516;-122.928;2023-09-19T10:13:04;100516.36;;;20.18;19.51
81999;BME280;71598;46.516;-122.928;2023-09-19T10:15:32;100514.33;;;20.36;19.51
81999;BME280;71598;46.516;-122.928;2023-09-19T10:17:54;100511.03;;;20.01;19.53
81999;BME280;71598;46.516;-122.928;2023-09-19T10:20:20;100515.71;;;20.11;19.51
81999;BME280;71598;46.516;-122.928;2023-09-19T10:22:46;100526.75;;;20.09;19.47
81999;BME280;71598;46.516;-122.928;2023-09-19T10:25:10;100523.64;;;19.88;19.48
81999;BME280;71598;46.516;-122.928;2023-09-19T10:27:36;100521.84;;;20.49;19.47
81999;BME280;71598;46.516;-122.928;2023-09-19T10:30:01;100526.14;;;20.14;19.47
81999;BME280;71598;46.516;-122.928;2023-09-19T10:32:26;100526.64;;;20.37;19.48
81999;BME280;71598;46.516;-122.928;2023-09-19T10:34:51;100518.73;;;20.43;19.47
81999;BME280;71598;46.516;-122.928;2023-09-19T10:37:17;100516.38;;;20.19;19.50
81999;BME280;71598;46.516;-122.928;2023-09-19T10:39:46;100515.20;;;20.61;19.49
81999;BME280;71598;46.516;-122.928;2023-09-19T10:42:13;100510.49;;;20.19;19.47
81999;BME280;71598;46.516;-122.928;2023-09-19T10:44:34;100503.96;;;20.68;19.49
81999;BME280;71598;46.516;-122.928;2023-09-19T10:47:00;100497.45;;;20.01;19.62
81999;BME280;71598;46.516;-122.928;2023-09-19T10:49:24;100492.60;;;20.09;19.50
81999;BME280;71598;46.516;-122.928;2023-09-19T10:51:52;100495.83;;;20.31;19.49
81999;BME280;71598;46.516;-122.928;2023-09-19T10:54:17;100500.03;;;20.08;19.50
81999;BME280;71598;46.516;-122.928;2023-09-19T10:56:44;100495.01;;;20.32;19.42
81999;BME280;71598;46.516;-122.928;2023-09-19T10:59:09;100489.01;;;20.07;19.49
81999;BME280;71598;46.516;-122.928;2023-09-19T11:01:42;100484.78;;;20.40;19.53
81999;BME280;71598;46.516;-122.928;2023-09-19T11:04:22;100482.10;;;20.62;19.53
81999;BME280;71598;46.516;-122.928;2023-09-19T11:06:21;100487.37;;;19.90;19.55
81999;BME280;71598;46.516;-122.928;2023-09-19T11:08:56;100481.56;;;20.03;19.54
81999;BME280;71598;46.516;-122.928;2023-09-19T11:11:40;100483.65;;;19.99;19.56
81999;BME280;71598;46.516;-122.928;2023-09-19T11:13:37;100497.50;;;19.84;19.57
81999;BME280;71598;46.516;-122.928;2023-09-19T11:16:05;100503.37;;;19.78;19.56
81999;BME280;71598;46.516;-122.928;2023-09-19T11:19:00;100507.52;;;19.94;19.57
81999;BME280;71598;46.516;-122.928;2023-09-19T11:21:41;100515.51;;;19.65;19.60
81999;BME280;71598;46.516;-122.928;2023-09-19T11:23:20;100519.88;;;19.35;19.63
81999;BME280;71598;46.516;-122.928;2023-09-19T11:25:44;100517.54;;;19.98;19.57
81999;BME280;71598;46.516;-122.928;2023-09-19T11:28:31;100513.15;;;20.42;19.57
81999;BME280;71598;46.516;-122.928;2023-09-19T11:30:36;100512.92;;;19.77;19.56
81999;BME280;71598;46.516;-122.928;2023-09-19T11:33:32;100514.28;;;20.32;19.55
81999;BME280;71598;46.516;-122.928;2023-09-19T11:35:59;100515.20;;;19.65;19.59
81999;BME280;71598;46.516;-122.928;2023-09-19T11:38:01;100507.30;;;19.50;19.59
81999;BME280;71598;46.516;-122.928;2023-09-19T11:40:16;100502.13;;;19.84;19.57
81999;BME280;71598;46.516;-122.928;2023-09-19T11:42:44;100495.86;;;20.02;19.59
81999;BME280;71598;46.516;-122.928;2023-09-19T11:46:09;100487.06;;;19.79;19.58
81999;BME280;71598;46.516;-122.928;2023-09-19T11:47:33;100479.24;;;18.64;19.70
81999;BME280;71598;46.516;-122.928;2023-09-19T11:50:01;100473.81;;;19.91;19.57
81999;BME280;71598;46.516;-122.928;2023-09-19T11:52:25;100472.26;;;19.96;19.62
81999;BME280;71598;46.516;-122.928;2023-09-19T11:54:55;100473.09;;;20.16;19.60
81999;BME280;71598;46.516;-122.928;2023-09-19T11:57:21;100469.78;;;19.90;19.61
81999;BME280;71598;46.516;-122.928;2023-09-19T11:59:41;100457.38;;;20.01;19.61
81999;BME280;71598;46.516;-122.928;2023-09-19T12:02:07;100456.49;;;19.97;19.63
81999;BME280;71598;46.516;-122.928;2023-09-19T12:04:35;100460.69;;;19.95;19.63
81999;BME280;71598;46.516;-122.928;2023-09-19T12:06:58;100460.63;;;19.94;19.51
81999;BME280;71598;46.516;-122.928;2023-09-19T12:09:22;100462.26;;;19.56;19.65
81999;BME280;71598;46.516;-122.928;2023-09-19T12:11:49;100464.05;;;19.65;19.65